Time;durP1;ratioP1;P1;durP2;ratioP2;P2;SDS_P1;SDS_P2;PMS_P1;PMS_P2;Temp;Humidity;BMP_temperature;BMP_pressure;BME280_temperature;BME280_humidity;BME280_pressure;Samples;Min_cycle;Max_cycle;Signal;HPM_P1;HPM_P2
2021/04/07 00:02:06;;;;;;;10.73;2.40;;;1.20;90.50;;;;;;5067678;28;20031;-77
2021/04/07 00:04:33;;;;;;;7.45;2.20;;;1.20;90.60;;;;;;5056944;28;20481;-77
2021/04/07 00:07:00;;;;;;;11.73;2.15;;;1.20;90.50;;;;;;5058098;28;20036;-76
2021/04/07 00:09:26;;;;;;;8.98;2.50;;;1.20;90.50;;;;;;5056464;28;20090;-76
2021/04/07 00:11:52;;;;;;;5.85;1.70;;;1.20;90.50;;;;;;5061109;28;20051;-76
2021/04/07 00:14:18;;;;;;;9.48;2.28;;;1.20;90.50;;;;;;5067913;28;20478;-76
2021/04/07 00:16:44;;;;;;;9.57;2.40;;;1.20;90.80;;;;;;5052694;28;20113;-76
2021/04/07 00:19:10;;;;;;;6.00;1.90;;;1.20;90.50;;;;;;5056485;28;20035;-77
2021/04/07 00:21:36;;;;;;;8.63;2.38;;;1.20;90.50;;;;;;5073738;28;20029;-77
2021/04/07 00:24:02;;;;;;;11.32;3.30;;;1.10;90.50;;;;;;5072743;28;20029;-77
2021/04/07 00:26:28;;;;;;;13.90;3.38;;;1.10;90.60;;;;;;5071134;28;20024;-76
2021/04/07 00:28:54;;;;;;;5.70;1.95;;;1.10;90.70;;;;;;5062498;28;20359;-76
2021/04/07 00:31:19;;;;;;;8.82;2.78;;;1.10;90.70;;;;;;5056170;28;20482;-76
2021/04/07 00:33:45;;;;;;;6.13;2.58;;;1.10;90.70;;;;;;5072171;28;20087;-76
2021/04/07 00:36:10;;;;;;;7.68;2.30;;;1.10;90.70;;;;;;5070393;28;20107;-76
2021/04/07 00:38:36;;;;;;;8.70;2.45;;;1.10;90.70;;;;;;5072844;28;20028;-76
2021/04/07 00:41:02;;;;;;;10.57;2.53;;;1.10;90.80;;;;;;5068102;28;20025;-76
2021/04/07 00:43:28;;;;;;;15.82;2.70;;;1.10;90.70;;;;;;5075573;28;21383;-76
2021/04/07 00:45:53;;;;;;;9.32;2.55;;;1.10;90.70;;;;;;5075769;28;20029;-76
2021/04/07 00:48:20;;;;;;;6.63;2.15;;;1.10;90.70;;;;;;5069879;28;20051;-76
2021/04/07 00:50:45;;;;;;;12.65;3.10;;;1.10;90.70;;;;;;5056434;28;20374;-76
2021/04/07 00:53:11;;;;;;;8.45;2.50;;;1.10;90.70;;;;;;5107429;28;20032;-76
2021/04/07 00:55:44;;;;;;;7.78;2.83;;;1.00;90.80;;;;;;5073918;28;20046;-77
2021/04/07 00:58:09;;;;;;;7.38;2.83;;;1.00;90.70;;;;;;5095849;28;20028;-77
2021/04/07 01:00:35;;;;;;;13.65;3.03;;;1.00;90.80;;;;;;5058468;28;20028;-76
2021/04/07 01:03:02;;;;;;;7.13;2.20;;;1.00;90.80;;;;;;5108959;27;20024;-76
2021/04/07 01:05:29;;;;;;;7.82;2.88;;;1.00;90.80;;;;;;5110957;28;20364;-76
2021/04/07 01:07:55;;;;;;;10.77;2.60;;;1.00;90.80;;;;;;5108846;28;20430;-76
2021/04/07 01:10:22;;;;;;;7.38;2.63;;;1.10;90.80;;;;;;5098628;28;20066;-76
2021/04/07 01:12:47;;;;;;;9.05;2.47;;;1.10;90.80;;;;;;5080969;28;20022;-76
2021/04/07 01:15:14;;;;;;;8.13;2.30;;;1.10;90.80;;;;;;5071555;28;20025;-76
2021/04/07 01:17:41;;;;;;;5.13;1.95;;;1.10;90.90;;;;;;5091250;28;20040;-77
2021/04/07 01:20:10;;;;;;;9.55;2.17;;;1.20;90.80;;;;;;5095375;28;20473;-77
2021/04/07 01:22:37;;;;;;;9.90;2.17;;;1.20;90.80;;;;;;5075182;28;20480;-76
2021/04/07 01:25:10;;;;;;;7.68;2.22;;;1.20;90.80;;;;;;5101602;28;20081;-76
2021/04/07 01:27:37;;;;;;;12.65;3.20;;;1.30;90.90;;;;;;5097223;28;20553;-76
2021/04/07 01:30:08;;;;;;;13.23;3.45;;;1.30;90.90;;;;;;5056830;28;20024;-76
2021/04/07 01:32:36;;;;;;;8.40;2.67;;;1.30;90.90;;;;;;5075366;28;20064;-76
2021/04/07 01:35:01;;;;;;;8.93;4.45;;;1.30;91.00;;;;;;5081049;28;20031;-76
2021/04/07 01:37:27;;;;;;;8.43;4.28;;;1.30;91.40;;;;;;5091002;28;20100;-76
2021/04/07 01:39:52;;;;;;;10.43;4.15;;;1.30;91.30;;;;;;5094362;28;20487;-76
2021/04/07 01:42:18;;;;;;;10.68;4.32;;;1.30;91.30;;;;;;5076883;28;20025;-76
2021/04/07 01:44:45;;;;;;;20.73;5.78;;;1.30;91.30;;;;;;5076446;28;20032;-76
2021/04/07 01:47:13;;;;;;;10.90;5.13;;;1.40;91.40;;;;;;5094519;28;20506;-76
2021/04/07 01:49:38;;;;;;;11.75;5.93;;;1.30;91.50;;;;;;5060673;28;20036;-76
2021/04/07 01:52:05;;;;;;;11.90;6.75;;;1.30;91.50;;;;;;5090816;28;20028;-76
2021/04/07 01:54:33;;;;;;;16.88;7.00;;;1.30;91.60;;;;;;5081519;28;20446;-76
2021/04/07 01:56:59;;;;;;;16.48;6.47;;;1.30;91.90;;;;;;5074881;28;20043;-76
2021/04/07 01:59:28;;;;;;;16.17;7.32;;;1.30;91.60;;;;;;5090035;28;20034;-76
2021/04/07 02:01:55;;;;;;;11.93;6.03;;;1.40;91.60;;;;;;5056650;28;20027;-76
2021/04/07 02:04:21;;;;;;;15.98;6.35;;;1.40;91.60;;;;;;5073162;28;20043;-76
2021/04/07 02:06:48;;;;;;;6.88;5.45;;;1.40;91.60;;;;;;5091856;28;20080;-76
2021/04/07 02:09:15;;;;;;;12.85;5.88;;;1.50;91.70;;;;;;5095837;28;20134;-76
2021/04/07 02:11:45;;;;;;;9.45;6.05;;;1.50;91.70;;;;;;5094937;28;20032;-76
2021/04/07 02:14:19;;;;;;;11.93;6.38;;;1.50;91.60;;;;;;5091535;28;20029;-76
2021/04/07 02:16:59;;;;;;;9.70;5.72;;;1.50;91.60;;;;;;5058447;28;20063;-76
2021/04/07 02:19:26;;;;;;;8.35;5.18;;;1.60;91.50;;;;;;5073895;28;20020;-76
2021/04/07 02:22:04;;;;;;;9.73;5.13;;;1.60;91.50;;;;;;5056344;28;20024;-76
2021/04/07 02:24:30;;;;;;;9.13;5.15;;;1.60;91.50;;;;;;5067430;28;20070;-76
2021/04/07 02:26:56;;;;;;;7.35;4.35;;;1.60;91.50;;;;;;5094718;28;20027;-76
2021/04/07 02:29:22;;;;;;;9.35;4.55;;;1.60;91.50;;;;;;5075682;28;20028;-76
2021/04/07 02:31:47;;;;;;;5.63;4.18;;;1.60;91.50;;;;;;5058411;28;20035;-76
2021/04/07 02:34:13;;;;;;;10.32;4.88;;;1.60;91.50;;;;;;5058941;28;20028;-76
2021/04/07 02:36:39;;;;;;;5.60;3.83;;;1.60;91.40;;;;;;5063891;28;20058;-76
2021/04/07 02:39:05;;;;;;;9.05;3.92;;;1.70;91.40;;;;;;5070045;28;20099;-77
2021/04/07 02:41:31;;;;;;;8.10;3.95;;;1.70;91.40;;;;;;5063438;28;20033;-76
2021/04/07 02:43:56;;;;;;;5.53;3.42;;;1.70;91.40;;;;;;5077619;28;20506;-76
2021/04/07 02:46:22;;;;;;;7.47;3.50;;;1.70;91.40;;;;;;5074681;28;20081;-76
2021/04/07 02:48:48;;;;;;;7.38;3.40;;;1.70;91.40;;;;;;5075315;28;20036;-76
2021/04/07 02:51:14;;;;;;;10.63;4.35;;;1.70;91.30;;;;;;5088379;28;20032;-76
2021/04/07 02:53:39;;;;;;;8.68;3.53;;;1.70;91.30;;;;;;5108375;28;20470;-76
2021/04/07 02:56:05;;;;;;;6.20;3.10;;;1.70;91.20;;;;;;5091340;28;20058;-76
2021/04/07 02:58:31;;;;;;;11.27;4.80;;;1.70;91.20;;;;;;5093405;28;20036;-77
2021/04/07 03:00:56;;;;;;;9.30;4.00;;;1.70;91.20;;;;;;5071412;28;20029;-76
2021/04/07 03:03:22;;;;;;;11.85;4.75;;;1.70;91.30;;;;;;5107298;28;20031;-76
2021/04/07 03:05:47;;;;;;;16.00;6.30;;;1.60;91.30;;;;;;5065202;28;20115;-76
2021/04/07 03:08:13;;;;;;;12.00;5.00;;;1.60;91.40;;;;;;5093278;28;20035;-76
2021/04/07 03:10:39;;;;;;;10.15;4.25;;;1.60;91.50;;;;;;5077684;28;20115;-76
2021/04/07 03:13:06;;;;;;;12.27;4.82;;;1.60;91.60;;;;;;5050246;28;20370;-76
2021/04/07 03:15:31;;;;;;;12.48;5.50;;;1.60;91.70;;;;;;5072881;28;20038;-76
2021/04/07 03:17:57;;;;;;;11.75;4.57;;;1.50;91.70;;;;;;5068854;28;20033;-76
2021/04/07 03:20:22;;;;;;;7.70;3.80;;;1.50;91.80;;;;;;5057279;28;20473;-76
2021/04/07 03:22:48;;;;;;;15.02;4.72;;;1.50;91.80;;;;;;5090329;28;20031;-76
2021/04/07 03:25:13;;;;;;;10.85;3.90;;;1.50;91.80;;;;;;5075608;28;20115;-76
2021/04/07 03:27:39;;;;;;;9.65;4.20;;;1.50;91.80;;;;;;5060921;28;20040;-76
2021/04/07 03:30:06;;;;;;;9.38;4.43;;;1.60;91.80;;;;;;5066393;28;20123;-76
2021/04/07 03:32:32;;;;;;;12.60;4.75;;;1.60;91.70;;;;;;5085358;28;20055;-76
2021/04/07 03:34:58;;;;;;;11.57;4.35;;;1.60;91.70;;;;;;5097549;28;20036;-76
2021/04/07 03:37:23;;;;;;;12.13;4.00;;;1.60;91.70;;;;;;5060741;28;20040;-76
2021/04/07 03:39:50;;;;;;;11.48;4.50;;;1.60;91.70;;;;;;5089367;28;20074;-76
2021/04/07 03:42:16;;;;;;;15.77;5.65;;;1.60;91.70;;;;;;5088591;28;20016;-76
2021/04/07 03:44:41;;;;;;;11.82;4.47;;;1.60;91.70;;;;;;5079662;28;20036;-76
2021/04/07 03:47:07;;;;;;;8.45;3.92;;;1.60;91.80;;;;;;5071926;28;20052;-76
2021/04/07 03:49:33;;;;;;;11.75;4.45;;;1.60;91.80;;;;;;5076150;28;20097;-76
2021/04/07 03:51:58;;;;;;;11.65;3.85;;;1.60;91.80;;;;;;5094281;28;20020;-76
2021/04/07 03:54:25;;;;;;;10.68;3.95;;;1.70;91.80;;;;;;5106072;28;20437;-76
2021/04/07 03:56:51;;;;;;;10.23;3.45;;;1.70;92.00;;;;;;5069384;28;20055;-76
2021/04/07 03:59:16;;;;;;;14.18;4.60;;;1.70;91.70;;;;;;5083604;28;20028;-76
2021/04/07 04:01:42;;;;;;;10.02;4.22;;;1.70;91.70;;;;;;5079409;28;20028;-76
2021/04/07 04:04:09;;;;;;;13.10;4.95;;;1.70;91.70;;;;;;5097361;28;20042;-76
2021/04/07 04:06:35;;;;;;;13.05;5.95;;;1.70;91.70;;;;;;5049888;28;20033;-76
2021/04/07 04:09:01;;;;;;;14.23;6.43;;;1.70;91.70;;;;;;5066175;28;20043;-76
2021/04/07 04:11:27;;;;;;;12.80;8.60;;;1.70;91.70;;;;;;5100007;28;20032;-76
2021/04/07 04:13:53;;;;;;;12.88;8.48;;;1.70;91.70;;;;;;5072910;28;20671;-76
2021/04/07 04:16:18;;;;;;;15.80;8.10;;;1.70;91.70;;;;;;5057960;28;20021;-76
2021/04/07 04:18:44;;;;;;;18.80;8.45;;;1.70;91.70;;;;;;5108694;28;20115;-76
2021/04/07 04:21:09;;;;;;;16.25;9.48;;;1.80;91.70;;;;;;5095354;28;20060;-76
2021/04/07 04:23:35;;;;;;;15.98;10.63;;;1.80;91.60;;;;;;5111669;28;20476;-76
2021/04/07 04:26:01;;;;;;;14.50;9.23;;;1.80;91.60;;;;;;5096054;28;20099;-76
2021/04/07 04:28:26;;;;;;;16.38;11.07;;;1.80;91.60;;;;;;5096475;28;20070;-76
2021/04/07 04:30:52;;;;;;;15.98;10.10;;;1.90;91.60;;;;;;5096029;28;20028;-76
2021/04/07 04:33:18;;;;;;;14.43;9.85;;;1.90;91.50;;;;;;5077441;28;20399;-76
2021/04/07 04:35:43;;;;;;;14.27;9.73;;;1.90;91.50;;;;;;5096382;28;20032;-76
2021/04/07 04:38:09;;;;;;;15.32;11.25;;;1.90;91.50;;;;;;5074549;28;20043;-76
2021/04/07 04:40:34;;;;;;;15.32;9.70;;;2.00;91.50;;;;;;5072461;28;20036;-76
2021/04/07 04:43:00;;;;;;;17.88;11.50;;;2.00;91.40;;;;;;5094934;28;20036;-76
2021/04/07 04:45:26;;;;;;;18.30;12.70;;;1.90;91.40;;;;;;5076683;28;20476;-76
2021/04/07 04:47:51;;;;;;;20.25;14.05;;;1.90;91.50;;;;;;5092306;28;20107;-76
2021/04/07 04:50:17;;;;;;;14.57;11.85;;;1.90;91.60;;;;;;5060378;28;20024;-76
2021/04/07 04:52:42;;;;;;;20.02;12.73;;;1.80;91.70;;;;;;5076897;28;20097;-76
2021/04/07 04:55:10;;;;;;;19.00;11.63;;;1.80;91.80;;;;;;5055416;28;20132;-76
2021/04/07 04:57:36;;;;;;;15.02;11.85;;;1.80;91.90;;;;;;5054941;28;20033;-76
2021/04/07 05:00:05;;;;;;;16.75;11.90;;;1.80;91.90;;;;;;5052629;28;20424;-76
2021/04/07 05:02:30;;;;;;;16.23;11.75;;;1.80;91.90;;;;;;5053016;28;20025;-76
2021/04/07 05:04:56;;;;;;;16.50;12.68;;;1.80;92.00;;;;;;5060691;28;20439;-76
2021/04/07 05:07:21;;;;;;;18.15;11.82;;;1.80;92.10;;;;;;5037435;28;20040;-76
2021/04/07 05:09:47;;;;;;;20.50;12.88;;;1.80;92.10;;;;;;5052059;28;20029;-76
2021/04/07 05:12:13;;;;;;;16.58;11.57;;;1.80;92.10;;;;;;5053179;28;20033;-76
2021/04/07 05:14:38;;;;;;;15.77;11.18;;;1.80;92.10;;;;;;5050659;28;20429;-76
2021/04/07 05:17:04;;;;;;;18.05;11.88;;;1.80;92.10;;;;;;5040059;28;20036;-75
2021/04/07 05:19:30;;;;;;;15.85;10.80;;;1.90;92.10;;;;;;5041968;28;20025;-76
2021/04/07 05:21:55;;;;;;;15.68;11.43;;;1.80;92.10;;;;;;5043604;28;20425;-76
2021/04/07 05:24:22;;;;;;;20.95;11.52;;;1.80;92.10;;;;;;5054546;28;20525;-76
2021/04/07 05:26:47;;;;;;;18.55;11.88;;;1.80;92.60;;;;;;5053071;28;20454;-76
2021/04/07 05:29:13;;;;;;;19.95;10.48;;;1.90;92.40;;;;;;5048020;28;20036;-76
2021/04/07 05:31:38;;;;;;;23.38;11.48;;;2.00;92.20;;;;;;5041025;28;20065;-76
2021/04/07 05:34:04;;;;;;;20.77;12.25;;;2.00;92.00;;;;;;5041412;28;20527;-76
2021/04/07 05:36:30;;;;;;;20.00;11.60;;;2.00;92.00;;;;;;5039173;28;20038;-76
2021/04/07 05:38:55;;;;;;;23.27;12.77;;;1.90;92.00;;;;;;5044635;28;20474;-76
2021/04/07 05:41:21;;;;;;;27.23;12.48;;;1.90;92.10;;;;;;5041252;28;20477;-76
2021/04/07 05:43:47;;;;;;;16.90;10.85;;;1.80;92.10;;;;;;5042243;28;20477;-76
2021/04/07 05:46:13;;;;;;;28.83;13.77;;;1.80;92.30;;;;;;5053207;28;20029;-77
2021/04/07 05:48:39;;;;;;;22.33;11.13;;;1.80;92.40;;;;;;5053913;28;20033;-76
2021/04/07 05:51:06;;;;;;;17.45;9.05;;;1.80;92.40;;;;;;5053937;28;20071;-76
2021/04/07 05:53:31;;;;;;;22.10;10.77;;;1.80;92.40;;;;;;5055190;28;20044;-76
2021/04/07 05:55:58;;;;;;;14.77;9.27;;;1.70;92.40;;;;;;5074105;28;20052;-76
2021/04/07 05:58:25;;;;;;;21.85;9.73;;;1.80;92.50;;;;;;5074173;28;20086;-76
2021/04/07 06:00:51;;;;;;;27.10;11.77;;;1.70;92.50;;;;;;5074520;28;20024;-76
2021/04/07 06:03:18;;;;;;;12.23;8.52;;;1.80;92.60;;;;;;5073380;28;20051;-76
2021/04/07 06:05:45;;;;;;;12.82;7.25;;;1.70;92.70;;;;;;5074384;28;20041;-76
2021/04/07 06:08:12;;;;;;;11.50;6.57;;;1.80;92.70;;;;;;5073197;28;20025;-76
2021/04/07 06:10:39;;;;;;;14.35;6.38;;;1.80;92.70;;;;;;5073252;28;20085;-76
2021/04/07 06:13:05;;;;;;;10.77;6.10;;;1.80;92.70;;;;;;5073071;28;20028;-76
2021/04/07 06:15:32;;;;;;;13.25;6.75;;;1.80;92.70;;;;;;5073035;28;20043;-76
2021/04/07 06:18:02;;;;;;;10.93;6.13;;;1.80;92.70;;;;;;5074384;28;20033;-76
2021/04/07 06:20:30;;;;;;;15.07;6.30;;;1.80;92.70;;;;;;5074364;28;20016;-76
2021/04/07 06:22:56;;;;;;;13.50;5.90;;;1.80;92.70;;;;;;5072679;28;20029;-76
2021/04/07 06:25:22;;;;;;;15.13;5.70;;;1.80;92.70;;;;;;5055931;28;20017;-77
2021/04/07 06:27:49;;;;;;;10.40;4.80;;;1.90;92.80;;;;;;5073905;28;20492;-76
2021/04/07 06:30:16;;;;;;;5.78;3.92;;;1.90;92.70;;;;;;5073913;28;20117;-76
2021/04/07 06:32:42;;;;;;;9.38;5.15;;;1.90;92.70;;;;;;5073915;28;20029;-76
2021/04/07 06:35:08;;;;;;;11.18;4.32;;;1.90;92.60;;;;;;5073723;28;20082;-76
2021/04/07 06:37:34;;;;;;;9.00;4.20;;;1.90;92.60;;;;;;5072151;28;20032;-76
2021/04/07 06:39:59;;;;;;;7.57;3.60;;;1.90;92.50;;;;;;5055829;28;20032;-76
2021/04/07 06:42:25;;;;;;;13.80;4.80;;;1.80;92.50;;;;;;5056120;28;20028;-76
2021/04/07 06:44:51;;;;;;;9.32;3.90;;;1.80;92.80;;;;;;5072450;28;20044;-76
2021/04/07 06:47:17;;;;;;;6.45;3.03;;;1.80;92.50;;;;;;5072459;28;20025;-76
2021/04/07 06:49:43;;;;;;;17.58;3.03;;;1.70;92.60;;;;;;5055503;28;20035;-76
2021/04/07 06:52:18;;;;;;;10.80;2.65;;;1.70;92.60;;;;;;5055469;28;20028;-76
2021/04/07 06:54:45;;;;;;;10.68;2.60;;;1.70;92.70;;;;;;5083343;28;20062;-76
2021/04/07 06:57:11;;;;;;;4.28;1.90;;;1.70;92.80;;;;;;5093575;28;20023;-76
2021/04/07 06:59:37;;;;;;;8.68;2.38;;;1.70;92.80;;;;;;5093847;28;20024;-76
2021/04/07 07:02:03;;;;;;;10.27;3.20;;;1.70;92.80;;;;;;5093361;28;20024;-76
2021/04/07 07:04:29;;;;;;;6.15;2.30;;;1.70;92.80;;;;;;5075806;28;20111;-76
2021/04/07 07:06:56;;;;;;;10.18;2.88;;;1.70;92.90;;;;;;5075247;28;20104;-76
2021/04/07 07:09:22;;;;;;;6.07;2.28;;;1.70;92.80;;;;;;5093644;28;20024;-76
2021/04/07 07:11:50;;;;;;;6.90;2.65;;;1.70;92.80;;;;;;5093308;28;20153;-76
2021/04/07 07:14:18;;;;;;;7.18;3.45;;;1.80;92.90;;;;;;5093553;28;20111;-76
2021/04/07 07:16:48;;;;;;;7.93;2.85;;;1.70;92.80;;;;;;5093461;28;20107;-76
2021/04/07 07:19:31;;;;;;;7.93;2.60;;;1.80;92.90;;;;;;5093328;28;20097;-76
2021/04/07 07:22:01;;;;;;;8.55;2.75;;;1.70;92.70;;;;;;5074969;28;20032;-75
2021/04/07 07:24:33;;;;;;;;;;;1.70;92.70;;;;;;5093632;28;20028;-76
2021/04/07 07:27:06;;;;;;;5.88;2.47;;;1.60;92.80;;;;;;5074742;28;19919;-75
2021/04/07 07:29:36;;;;;;;4.80;2.40;;;1.60;93.00;;;;;;5093053;28;20033;-75
2021/04/07 07:32:10;;;;;;;4.90;1.80;;;1.70;93.10;;;;;;5075192;28;20389;-74
2021/04/07 07:34:36;;;;;;;4.32;2.13;;;1.70;92.90;;;;;;5092604;28;20036;-74
2021/04/07 07:37:04;;;;;;;4.22;1.80;;;2.00;93.50;;;;;;5093063;28;20020;-75
2021/04/07 07:39:32;;;;;;;6.90;2.25;;;2.40;92.80;;;;;;5074237;28;20036;-75
2021/04/07 07:42:02;;;;;;;2.80;1.90;;;2.40;92.20;;;;;;5071034;28;20099;-80
2021/04/07 07:44:33;;;;;;;9.13;2.15;;;2.30;91.90;;;;;;5069934;28;20020;-80
2021/04/07 07:47:08;;;;;;;8.30;3.40;;;2.20;91.90;;;;;;5087703;28;20020;-80
2021/04/07 07:49:34;;;;;;;5.88;2.80;;;2.20;92.10;;;;;;5071807;28;20024;-80
2021/04/07 07:52:00;;;;;;;4.72;2.75;;;2.10;92.10;;;;;;5102894;28;20054;-79
2021/04/07 07:54:27;;;;;;;5.95;2.88;;;2.10;92.10;;;;;;5072544;28;20053;-80
2021/04/07 07:56:53;;;;;;;7.68;3.05;;;2.10;92.10;;;;;;5048691;28;20473;-80
2021/04/07 07:59:26;;;;;;;5.05;2.63;;;2.00;92.10;;;;;;5028450;28;20123;-80
2021/04/07 08:01:51;;;;;;;7.82;3.08;;;2.00;92.20;;;;;;5046372;28;20059;-79
2021/04/07 08:04:18;;;;;;;4.80;2.80;;;2.00;92.20;;;;;;5018350;28;20494;-79
2021/04/07 08:06:45;;;;;;;4.95;2.63;;;2.10;92.30;;;;;;5048677;28;20517;-79
2021/04/07 08:09:10;;;;;;;4.72;2.88;;;2.10;92.30;;;;;;5047762;28;20039;-78
2021/04/07 08:11:36;;;;;;;6.75;3.33;;;2.10;92.20;;;;;;5048804;28;20025;-84
2021/04/07 08:14:04;;;;;;;5.55;3.03;;;2.00;92.30;;;;;;5048793;28;20025;-84
2021/04/07 08:16:31;;;;;;;4.28;2.80;;;2.00;92.40;;;;;;5047433;28;20037;-84
2021/04/07 08:18:58;;;;;;;6.70;3.33;;;2.10;92.50;;;;;;5037327;28;20585;-85
2021/04/07 08:21:24;;;;;;;5.07;2.95;;;2.10;92.50;;;;;;5030046;28;20036;-84
2021/04/07 08:24:02;;;;;;;4.82;3.40;;;2.20;92.50;;;;;;5047510;28;20043;-85
2021/04/07 08:26:30;;;;;;;6.00;3.10;;;2.20;92.50;;;;;;5046624;28;20025;-83
2021/04/07 08:28:56;;;;;;;3.72;2.92;;;2.20;92.40;;;;;;5046704;28;20108;-85
2021/04/07 08:31:24;;;;;;;8.73;2.90;;;2.30;92.40;;;;;;5048654;28;20539;-86
2021/04/07 08:33:51;;;;;;;5.22;2.30;;;2.30;92.40;;;;;;5048011;28;20040;-85
2021/04/07 08:36:18;;;;;;;6.22;2.85;;;2.30;92.30;;;;;;5047530;28;20040;-86
2021/04/07 08:38:44;;;;;;;4.13;2.95;;;2.30;92.30;;;;;;5046980;28;20025;-85
2021/04/07 08:41:17;;;;;;;3.90;2.70;;;2.40;92.40;;;;;;5030773;28;20025;-85
2021/04/07 08:43:43;;;;;;;5.63;3.40;;;2.40;92.50;;;;;;5049834;28;20029;-85
2021/04/07 08:46:28;;;;;;;6.47;3.20;;;2.40;92.50;;;;;;5052459;28;20527;-86
2021/04/07 08:48:54;;;;;;;5.28;3.05;;;2.40;92.60;;;;;;5034708;28;20394;-86
2021/04/07 08:51:23;;;;;;;4.68;3.13;;;2.30;92.60;;;;;;5052242;28;20029;-86
2021/04/07 08:53:54;;;;;;;6.32;2.83;;;2.30;92.60;;;;;;5039812;28;20474;-86
2021/04/07 08:56:26;;;;;;;5.65;3.00;;;2.30;92.70;;;;;;5070817;28;20044;-87
2021/04/07 08:58:52;;;;;;;7.15;3.60;;;2.30;92.70;;;;;;5062605;28;20032;-85
2021/04/07 09:01:24;;;;;;;4.35;2.10;;;2.30;92.80;;;;;;5058630;28;20025;-86
2021/04/07 09:03:50;;;;;;;3.90;2.55;;;2.30;93.00;;;;;;5075689;28;20021;-87
2021/04/07 09:06:16;;;;;;;9.30;3.72;;;2.30;92.70;;;;;;5074801;28;20032;-87
2021/04/07 09:08:55;;;;;;;9.52;4.13;;;2.30;92.70;;;;;;5068204;28;20067;-87
2021/04/07 09:11:32;;;;;;;7.47;4.47;;;2.30;92.80;;;;;;5055670;28;20063;-87
2021/04/07 09:14:00;;;;;;;12.15;5.30;;;2.30;93.00;;;;;;5055611;28;20032;-87
2021/04/07 09:16:31;;;;;;;9.43;3.78;;;2.40;93.10;;;;;;5054436;28;20487;-86
2021/04/07 09:18:57;;;;;;;9.50;3.63;;;2.40;93.10;;;;;;5054141;28;20501;-86
2021/04/07 09:21:23;;;;;;;19.40;6.05;;;2.50;93.10;;;;;;5037756;28;20029;-86
2021/04/07 09:23:53;;;;;;;23.10;6.07;;;2.60;93.10;;;;;;5073190;28;20016;-85
2021/04/07 09:26:21;;;;;;;17.67;5.55;;;2.60;93.10;;;;;;5075372;28;20020;-85
2021/04/07 09:28:49;;;;;;;23.25;5.72;;;2.70;93.10;;;;;;5063514;28;20385;-85
2021/04/07 09:31:28;;;;;;;25.88;6.95;;;2.70;93.10;;;;;;5074395;28;20040;-87
2021/04/07 09:33:57;;;;;;;20.60;6.72;;;2.70;93.10;;;;;;5067652;28;20060;-85
2021/04/07 09:36:34;;;;;;;27.60;7.88;;;2.80;93.30;;;;;;5051555;28;20029;-86
2021/04/07 09:39:05;;;;;;;20.65;6.47;;;3.00;93.40;;;;;;5049407;28;20025;-86
2021/04/07 09:41:34;;;;;;;20.33;7.18;;;3.20;93.50;;;;;;5050698;28;20021;-85
2021/04/07 09:44:02;;;;;;;20.02;7.60;;;3.30;93.30;;;;;;5049170;28;20021;-85
2021/04/07 09:46:28;;;;;;;33.30;7.15;;;3.50;93.30;;;;;;5049668;28;20025;-85
2021/04/07 09:49:05;;;;;;;31.83;7.43;;;3.70;93.20;;;;;;5050829;28;20107;-84
2021/04/07 09:51:39;;;;;;;26.67;6.90;;;3.90;93.20;;;;;;5048617;28;20039;-85
2021/04/07 09:54:15;;;;;;;22.67;6.47;;;4.10;93.30;;;;;;5054852;28;20119;-85
2021/04/07 09:57:10;;;;;;;28.75;6.80;;;4.30;93.20;;;;;;5069758;28;20048;-84
2021/04/07 09:59:49;;;;;;;25.63;6.95;;;4.60;93.00;;;;;;5069833;28;20100;-84
2021/04/07 10:02:29;;;;;;;30.63;6.72;;;4.80;92.60;;;;;;5069801;28;20028;-84
2021/04/07 10:04:56;;;;;;;26.05;6.80;;;4.90;92.20;;;;;;5069718;28;20067;-85
2021/04/07 10:07:24;;;;;;;28.30;6.80;;;5.00;92.20;;;;;;5068475;28;20485;-84
2021/04/07 10:09:57;;;;;;;29.13;6.53;;;5.10;92.20;;;;;;5070294;28;20484;-86
2021/04/07 10:12:28;;;;;;;30.60;7.05;;;5.20;92.00;;;;;;5085092;28;20385;-87
2021/04/07 10:14:58;;;;;;;29.23;6.47;;;5.30;92.00;;;;;;5069026;28;20493;-85
2021/04/07 10:17:26;;;;;;;30.08;7.18;;;5.40;92.00;;;;;;5070402;28;20085;-86
2021/04/07 10:19:52;;;;;;;35.63;6.85;;;5.50;92.00;;;;;;5067239;28;20077;-87
2021/04/07 10:22:30;;;;;;;21.77;6.18;;;5.60;91.70;;;;;;5069647;28;20384;-87
2021/04/07 10:25:00;;;;;;;30.15;6.65;;;5.70;91.60;;;;;;5063987;28;20036;-83
2021/04/07 10:27:26;;;;;;;22.80;5.93;;;5.70;91.20;;;;;;5068047;28;20028;-82
2021/04/07 10:30:06;;;;;;;27.13;6.03;;;5.80;91.40;;;;;;5067162;28;20039;-83
2021/04/07 10:32:38;;;;;;;30.38;6.00;;;5.80;91.40;;;;;;5068123;28;20031;-83
2021/04/07 10:35:04;;;;;;;25.00;5.72;;;5.90;91.20;;;;;;5070090;28;20028;-82
2021/04/07 10:37:30;;;;;;;25.77;5.13;;;6.00;91.40;;;;;;5067113;28;20044;-83
2021/04/07 10:39:55;;;;;;;36.55;6.93;;;6.10;91.50;;;;;;5067621;28;20485;-83
2021/04/07 10:42:24;;;;;;;36.28;6.07;;;6.30;91.30;;;;;;5067085;28;20106;-82
2021/04/07 10:45:04;;;;;;;24.40;5.72;;;6.50;91.40;;;;;;5051017;28;20025;-78
2021/04/07 10:47:39;;;;;;;30.55;5.75;;;6.60;91.20;;;;;;5066013;28;20133;-79
2021/04/07 10:50:08;;;;;;;35.92;5.10;;;7.10;90.90;;;;;;5068897;28;20025;-82
2021/04/07 10:52:39;;;;;;;32.53;5.40;;;7.20;90.00;;;;;;5068270;28;20020;-82
2021/04/07 10:55:10;;;;;;;27.90;4.85;;;7.30;89.60;;;;;;5058661;28;20093;-81
2021/04/07 10:57:42;;;;;;;23.48;4.55;;;7.10;88.50;;;;;;5049291;28;20040;-81
2021/04/07 11:00:23;;;;;;;27.90;5.05;;;7.10;90.30;;;;;;5048448;28;20029;-81
2021/04/07 11:02:51;;;;;;;35.15;4.80;;;7.30;90.10;;;;;;5048003;28;20094;-82
2021/04/07 11:05:22;;;;;;;35.50;5.13;;;7.30;89.20;;;;;;5048629;28;20017;-82
2021/04/07 11:08:00;;;;;;;41.58;6.45;;;7.40;88.80;;;;;;5048545;28;20051;-82
2021/04/07 11:10:25;;;;;;;29.85;5.50;;;7.40;89.10;;;;;;5047465;28;20123;-82
2021/04/07 11:12:51;;;;;;;33.10;5.97;;;7.30;88.90;;;;;;5047322;28;20136;-82
2021/04/07 11:15:18;;;;;;;37.92;6.40;;;7.30;88.60;;;;;;5047585;28;20056;-82
2021/04/07 11:17:54;;;;;;;37.50;6.55;;;7.10;89.30;;;;;;5048812;28;20111;-83
2021/04/07 11:20:25;;;;;;;44.58;6.90;;;6.90;89.50;;;;;;5048154;28;20036;-83
2021/04/07 11:22:51;;;;;;;29.42;6.03;;;6.70;89.90;;;;;;5048428;28;20119;-83
2021/04/07 11:25:17;;;;;;;37.08;6.07;;;6.60;90.50;;;;;;5026413;28;20029;-83
2021/04/07 11:27:43;;;;;;;33.80;6.88;;;6.50;90.70;;;;;;5046916;28;20485;-83
2021/04/07 11:30:10;;;;;;;34.75;6.50;;;6.50;90.90;;;;;;5046442;28;20069;-82
2021/04/07 11:32:42;;;;;;;34.92;5.85;;;6.50;90.90;;;;;;5046954;28;20037;-83
2021/04/07 11:35:20;;;;;;;37.63;7.57;;;6.50;91.20;;;;;;5047646;28;20033;-81
2021/04/07 11:38:01;;;;;;;39.05;6.40;;;6.40;91.40;;;;;;5046783;28;20025;-83
2021/04/07 11:40:42;;;;;;;43.28;6.65;;;6.30;90.80;;;;;;5047713;28;20071;-83
2021/04/07 11:45:35;;;;;;;32.10;5.05;;;5.90;90.50;;;;;;5047268;28;20525;-82
2021/04/07 11:48:01;;;;;;;38.50;5.63;;;5.80;90.90;;;;;;5045320;28;20040;-82
2021/04/07 11:50:27;;;;;;;31.38;5.78;;;5.90;91.20;;;;;;5042087;28;20044;-82
2021/04/07 11:52:52;;;;;;;29.23;4.63;;;6.00;91.40;;;;;;5046032;28;20381;-83
2021/04/07 11:55:19;;;;;;;28.75;4.93;;;6.20;91.40;;;;;;5045519;28;20040;-82
2021/04/07 11:57:44;;;;;;;29.42;4.53;;;6.40;91.40;;;;;;5051145;28;20044;-83
2021/04/07 12:00:12;;;;;;;26.15;4.13;;;6.60;90.90;;;;;;5049848;28;20439;-82
2021/04/07 12:02:42;;;;;;;29.48;4.43;;;6.80;90.30;;;;;;5051466;28;20030;-83
2021/04/07 12:05:09;;;;;;;26.60;4.25;;;7.00;90.30;;;;;;5050093;28;20025;-82
2021/04/07 12:07:35;;;;;;;24.10;4.72;;;7.20;89.80;;;;;;5051180;28;20056;-82
2021/04/07 12:10:01;;;;;;;25.02;5.45;;;7.20;87.70;;;;;;5051364;28;20029;-81
2021/04/07 12:12:26;;;;;;;19.15;4.10;;;7.20;89.00;;;;;;5050166;28;20082;-81
2021/04/07 12:14:52;;;;;;;22.15;5.15;;;7.30;87.60;;;;;;5055686;28;21365;-81
2021/04/07 12:17:17;;;;;;;21.90;4.70;;;7.20;87.50;;;;;;5055943;28;20033;-81
2021/04/07 12:19:43;;;;;;;34.38;5.25;;;7.10;88.50;;;;;;5054488;28;20100;-81
2021/04/07 12:22:10;;;;;;;19.95;4.75;;;7.10;88.40;;;;;;5054801;28;20441;-81
2021/04/07 12:24:36;;;;;;;19.20;4.30;;;7.30;88.70;;;;;;5054623;28;20039;-80
2021/04/07 12:27:01;;;;;;;22.42;3.95;;;7.60;88.50;;;;;;5052381;28;20123;-81
2021/04/07 12:29:28;;;;;;;20.70;3.85;;;7.70;87.60;;;;;;5036309;28;20041;-81
2021/04/07 12:31:53;;;;;;;29.23;4.30;;;7.90;87.40;;;;;;5052793;28;20029;-81
2021/04/07 12:34:19;;;;;;;23.65;4.60;;;8.00;84.30;;;;;;5052994;28;20504;-78
2021/04/07 12:36:46;;;;;;;22.42;3.38;;;7.90;82.80;;;;;;5053399;28;20029;-79
2021/04/07 12:39:11;;;;;;;17.27;3.17;;;7.60;82.80;;;;;;5052752;28;20025;-80
2021/04/07 12:41:54;;;;;;;11.65;2.53;;;7.30;83.30;;;;;;5052946;28;20130;-80
2021/04/07 12:44:20;;;;;;;16.77;2.67;;;7.00;84.20;;;;;;5054469;28;20091;-80
2021/04/07 12:46:46;;;;;;;13.35;2.22;;;6.70;85.90;;;;;;5054393;28;20017;-80
2021/04/07 12:49:12;;;;;;;20.58;3.25;;;6.50;86.90;;;;;;5052998;28;20033;-82
2021/04/07 12:51:37;;;;;;;15.35;2.97;;;6.50;87.90;;;;;;5053263;28;20032;-77
2021/04/07 12:54:04;;;;;;;22.55;3.03;;;6.50;85.30;;;;;;5036273;28;20039;-78
2021/04/07 12:56:31;;;;;;;15.70;2.47;;;6.50;86.00;;;;;;5048007;28;20055;-76